Flight Track Log - Related Links

Times and Time Zones

All times are in EDT time to prevent confusion due to time zone crossing. See the N813MK flight status page for this flight to view local times or setup timezone preferences in your user account.

Time Position Orientation Groundspeed Altitude Reporting Facility
EDT Latitude Longitude Course Direction KTS MPH feet Rate Location/Type
Thu 12:23:09 PM 35.4039 -97.5919 North 151 174 2,200  Level Fort Worth Center
Thu 12:24:22 PM 35.4644 -97.5894 North 180 207 5,300 1,850 Climbing Fort Worth Center
Thu 12:25:22 PM 35.5208 -97.5894 360° North 223 257 6,300 1,617 Climbing Fort Worth Center
Thu 12:27:35 PM 35.6942 -97.5728 North 297 342 10,500 1,803 Climbing Kansas City Center
Thu 12:28:35 PM 35.7925 -97.5631 North 342 394 12,100 1,694 Climbing Kansas City Center
Thu 12:29:39 PM 35.9044 -97.5503 North 387 445 14,000 1,920 Climbing Kansas City Center
Thu 12:30:40 PM 36.0208 -97.5042 18° North 429 494 16,100 2,016 Climbing Kansas City Center
Thu 12:31:41 PM 36.1361 -97.4328 27° Northeast 464 534 18,100 1,984 Climbing Kansas City Center
Thu 12:32:44 PM 36.2514 -97.3472 31° Northeast 481 554 20,200 2,032 Climbing Kansas City Center
Thu 12:33:45 PM 36.3725 -97.2586 30° Northeast 497 572 22,300 2,323 Climbing Kansas City Center
Thu 12:34:48 PM 36.5211 -97.1492 31° Northeast 513 590 25,000 2,177 Climbing Kansas City Center
Thu 12:35:49 PM 36.6378 -97.0656 30° Northeast 525 604 26,800 976 Climbing Kansas City Center
Thu 12:36:51 PM 36.7711 -96.9678 30° Northeast 545 627 27,000 97 Climbing Kansas City Center
Thu 12:37:53 PM 36.9247 -96.8550 30° Northeast 574 661 27,000  Level Kansas City Center
Thu 12:38:53 PM 37.0500 -96.7608 31° Northeast 576 663 27,000  Level Kansas City Center
Thu 12:39:54 PM 37.1919 -96.6556 31° Northeast 562 647 27,000  Level Kansas City Center
Thu 12:40:55 PM 37.3203 -96.5586 31° Northeast 549 632 27,000  Level Kansas City Center
Thu 12:41:59 PM 37.4500 -96.4625 30° Northeast 545 627 27,000  Level Kansas City Center
Thu 12:42:59 PM 37.6000 -96.3483 31° Northeast 544 626 27,000 -148 Level Kansas City Center
Thu 12:44:01 PM 37.7375 -96.2453 31° Northeast 550 633 26,700 -576 Descending Kansas City Center
Thu 12:45:04 PM 37.8703 -96.1464 30° Northeast 555 639 25,800 -1,220 Descending Kansas City Center
Thu 12:46:04 PM 38.0019 -96.0458 31° Northeast 551 634 24,200 -1,258 Descending Kansas City Center
Thu 12:47:08 PM 38.1406 -95.9383 31° Northeast 525 604 23,200 -1,488 Descending Kansas City Center
Thu 12:48:09 PM 38.2586 -95.8492 31° Northeast 517 595 21,100 -2,182 Descending Kansas City Center
Thu 12:49:09 PM 38.3725 -95.7606 31° Northeast 505 581 18,800 -2,508 Descending Kansas City Center
Thu 12:50:11 PM 38.5042 -95.6561 32° Northeast 500 575 16,000 -2,419 Descending Kansas City Center
Thu 12:51:13 PM 38.6183 -95.5683 31° Northeast 500 575 13,800 -1,902 Descending Kansas City Center
Thu 12:52:14 PM 38.7353 -95.4767 31° Northeast 441 507 12,100 -836 Descending Kansas City Center
Thu 12:53:15 PM 38.8203 -95.4022 34° Northeast 389 448 12,100 -144 Level Kansas City Center
Thu 12:54:19 PM 38.8986 -95.2897 48° Northeast 381 438 11,800 -528 Descending Kansas City Center
Thu 12:55:20 PM 38.9303 -95.1678 72° East 385 443 11,000 -1,377 Descending Kansas City Center
Thu 12:56:21 PM 38.9489 -95.0500 78° East 354 407 9,000 -1,934 Descending Kansas City Center
Thu 12:57:21 PM 38.9508 -94.9308 89° East 298 343 7,100 -960 Descending Kansas City Center
Thu 12:58:26 PM 38.9414 -94.8497 98° East 237 273 7,000 -624 Descending Kansas City Center
Thu 12:59:26 PM 38.9231 -94.7692 106° East 212 244 5,800 -1,370 Descending Kansas City Center
Thu 01:00:33 PM 38.9742 -94.7344 28° Northeast 195 224 4,100 -1,190 Descending Kansas City Center
Thu 01:01:32 PM 39.0108 -94.6978 38° Northeast 172 198 3,300 -800 Descending Kansas City Center
Thu 01:02:33 PM 39.0506 -94.6614 35° Northeast 158 182 2,500 -672 Descending Kansas City Center
Thu 01:03:37 PM 39.0786 -94.6231 47° Northeast 161 185 1,900 -672 Descending Kansas City Center
Thu 01:04:38 PM 39.1153 -94.5969 29° Northeast 158 182 1,100 -787 Descending Kansas City Center

Login

Don't have an account? Register now (free) for customized features, flight alerts, and more!